Impacts METAR Board
IDs:

KDFW - Dallas-Ft Worth Intl, TX, US

Updated at: 1300 UTC 21 Feb 2019
Potential Impact None Slight Moderate High
Time 21/01Z 21/02Z 21/03Z 21/04Z 21/05Z 21/06Z 21/07Z 21/08Z 21/09Z 21/10Z 21/11Z 21/12Z 21/13Z
Temp51 49 47 48 45 45 43 43 40 39 41 44 43
Dewpt34 37 36 36 36 37 37 37 35 35 35 35 35
Altim29.93 29.94 29.96 29.97 29.98 29.97 29.95 29.99 29.98 29.97 29.97 29.97 29.99
VIS10 10 10 10 10 10 10 10 10 10 10 10 10
CIG300 300 300 240 240 250 300 300 300 180 240 160 160
CoverOVCOVCOVCBKNBKNBKNBKNBKNBKNBKNBKNOVCOVC
FltCatVFRVFRVFRVFRVFRVFRVFRVFRVFRVFRVFRVFRVFR
WX--------------------------
WDir130140110110110100120150130100090100
WSpd5 8 3 4 3 3 3 5 4 4 0 5 4
WGst-- -- -- -- -- -- -- -- -- -- -- -- --
Raw hourly METARs
KDFW 210053Z 13005KT 10SM OVC300 11/01 A2993 RMK AO2 SLP134 T01060011
KDFW 210153Z 14008KT 10SM OVC300 09/03 A2994 RMK AO2 SLP138 T00940028
KDFW 210253Z 11003KT 10SM OVC300 08/02 A2996 RMK AO2 SLP146 T00830022 53018
KDFW 210353Z 11004KT 10SM BKN240 BKN300 09/02 A2997 RMK AO2 SLP149 T00890022
KDFW 210453Z 11003KT 10SM BKN240 BKN300 07/02 A2998 RMK AO2 SLP152 T00720022
KDFW 210553Z 10003KT 10SM BKN250 BKN300 07/03 A2997 RMK AO2 SLP148 T00720028 10117 20072 401440028 50002
KDFW 210653Z 12003KT 10SM SCT220 BKN300 06/03 A2995 RMK AO2 SLP142 T00610028
KDFW 210753Z 15005KT 10SM FEW220 BKN300 06/03 A2999 RMK AO2 SLP152 T00610028
KDFW 210853Z 13004KT 10SM FEW220 BKN300 04/02 A2998 RMK AO2 SLP151 T00440017 53004
KDFW 210953Z 10004KT 10SM BKN180 BKN300 04/02 A2997 RMK AO2 SLP147 T00390017
KDFW 211053Z 00000KT 10SM SCT170 BKN240 BKN300 05/02 A2997 RMK AO2 SLP148 T00500017
KDFW 211153Z 09005KT 10SM BKN160 BKN240 OVC300 07/02 A2997 RMK AO2 SLP148 T00670017 10072 20039 55003
KDFW 211253Z 10004KT 10SM BKN160 BKN240 OVC300 06/02 A2999 RMK AO2 SLP152 T00610017



Page loaded:  13:47 UTC  |   05:47 AM Pacific  |   06:47 AM Mountain  |   07:47 AM Central  |   08:47 AM Eastern

 

ADVISORIES

FORECASTS

FORECASTS

OBSERVATIONS

USER TOOLS

ABOUT US